createdAt,value
2023-02-24T00:00:30.870Z,97172.03
2023-02-24T00:01:37.563Z,97175.06
2023-02-24T00:02:39.370Z,97183.81
2023-02-24T00:03:44.831Z,97176.97
2023-02-24T00:04:51.635Z,97169.66
2023-02-24T00:05:54.394Z,97167.88
2023-02-24T00:06:56.046Z,97171.69
2023-02-24T00:07:58.654Z,97169.66
2023-02-24T00:09:00.288Z,97175.69
2023-02-24T00:10:04.118Z,97170.59
2023-02-24T00:11:10.121Z,97170.00
2023-02-24T00:12:14.091Z,97162.84
2023-02-24T00:13:22.224Z,97169.50
2023-02-24T00:14:25.697Z,97167.63
2023-02-24T00:15:27.339Z,97173.00
2023-02-24T00:16:30.019Z,97171.59
2023-02-24T00:17:31.816Z,97171.09
2023-02-24T00:18:35.940Z,97166.31
2023-02-24T00:19:37.691Z,97161.72
2023-02-24T00:20:40.429Z,97163.00
2023-02-24T00:21:42.146Z,97161.09
2023-02-24T00:22:44.872Z,97165.88
2023-02-24T00:23:46.981Z,97159.81
2023-02-24T00:24:49.567Z,97161.25
2023-02-24T00:25:59.066Z,97155.06
2023-02-24T00:27:02.389Z,97160.28
2023-02-24T00:28:04.276Z,97159.34
2023-02-24T00:29:09.490Z,97153.13
2023-02-24T00:30:12.237Z,97156.66
2023-02-24T00:31:17.035Z,97149.31
2023-02-24T00:32:18.939Z,97150.59
2023-02-24T00:33:22.778Z,97150.91
2023-02-24T00:34:24.508Z,97148.72
2023-02-24T00:35:27.103Z,97151.25
2023-02-24T00:36:29.895Z,97146.47
2023-02-24T00:37:33.079Z,97140.88
2023-02-24T00:38:35.921Z,97142.00
2023-02-24T00:39:41.488Z,97140.72
2023-02-24T00:40:45.304Z,97135.66
2023-02-24T00:41:47.906Z,97133.75
2023-02-24T00:42:49.560Z,97133.13
2023-02-24T00:43:52.131Z,97136.59
2023-02-24T00:44:55.231Z,97135.81
2023-02-24T00:45:57.861Z,97138.19
2023-02-24T00:47:00.053Z,97133.59
2023-02-24T00:48:04.582Z,97134.38
2023-02-24T00:49:10.391Z,97136.47
2023-02-24T00:50:14.115Z,97136.47
2023-02-24T00:51:16.683Z,97135.66
2023-02-24T00:52:20.352Z,97134.72
2023-02-24T00:53:22.819Z,97135.97
2023-02-24T00:54:28.271Z,97135.34
2023-02-24T00:55:36.136Z,97124.53
2023-02-24T00:56:38.723Z,97126.28
2023-02-24T00:57:41.287Z,97115.03
2023-02-24T00:58:44.878Z,97116.41
2023-02-24T00:59:47.723Z,97118.19
2023-02-24T01:00:52.212Z,97121.53
2023-02-24T01:01:54.727Z,97119.00
2023-02-24T01:02:59.333Z,97113.44
2023-02-24T01:04:05.871Z,97112.44
2023-02-24T01:05:09.554Z,97102.28
2023-02-24T01:06:12.104Z,97104.50
2023-02-24T01:07:14.694Z,97116.25
2023-02-24T01:08:21.371Z,97106.44
2023-02-24T01:09:23.972Z,97098.16
2023-02-24T01:10:28.343Z,97094.34
2023-02-24T01:11:54.088Z,97109.91
2023-02-24T01:12:56.690Z,97103.72
2023-02-24T01:13:58.316Z,97096.56
2023-02-24T01:15:02.942Z,97095.28
2023-02-24T01:16:07.103Z,97102.59
2023-02-24T01:17:09.756Z,97098.91
2023-02-24T01:18:11.382Z,97103.06
2023-02-24T01:19:14.102Z,97100.69
2023-02-24T01:20:16.657Z,97100.38
2023-02-24T01:21:20.229Z,97097.38
2023-02-24T01:22:22.644Z,97100.84
2023-02-24T01:23:25.974Z,97095.78
2023-02-24T01:24:28.485Z,97091.66
2023-02-24T01:25:31.258Z,97090.22
2023-02-24T01:26:32.861Z,97089.56
2023-02-24T01:27:37.002Z,97091.16
2023-02-24T01:28:38.648Z,97091.00
2023-02-24T01:29:41.258Z,97087.53
2023-02-24T01:30:44.325Z,97077.06
2023-02-24T01:31:50.354Z,97088.97
2023-02-24T01:32:52.288Z,97081.34
2023-02-24T01:33:55.347Z,97071.00
2023-02-24T01:34:56.961Z,97070.53
2023-02-24T01:36:05.900Z,97064.31
2023-02-24T01:37:07.516Z,97065.13
2023-02-24T01:38:11.144Z,97059.06
2023-02-24T01:39:13.532Z,97059.56
2023-02-24T01:40:21.455Z,97063.81
2023-02-24T01:41:23.521Z,97063.97
2023-02-24T01:42:25.148Z,97056.03
2023-02-24T01:43:28.069Z,97055.41
2023-02-24T01:45:13.203Z,97055.06
2023-02-24T01:46:17.608Z,97053.00
2023-02-24T01:47:20.871Z,97051.91
2023-02-24T01:48:24.148Z,97045.72
2023-02-24T01:49:29.459Z,97047.78
2023-02-24T01:50:32.930Z,97047.47
2023-02-24T01:51:36.194Z,97050.28
2023-02-24T01:52:39.051Z,97051.47
2023-02-24T01:53:40.667Z,97050.50
2023-02-24T01:54:44.352Z,97051.28
2023-02-24T01:55:49.273Z,97042.38
2023-02-24T01:56:51.582Z,97046.34
2023-02-24T01:57:54.225Z,97047.28
2023-02-24T01:58:56.145Z,97043.66
2023-02-24T02:00:02.048Z,97045.75
2023-02-24T02:01:08.741Z,97044.16
2023-02-24T02:02:11.503Z,97049.06
2023-02-24T02:03:20.966Z,97041.13
2023-02-24T02:04:26.562Z,97042.88
2023-02-24T02:05:28.347Z,97041.59
2023-02-24T02:06:31.038Z,97041.06
2023-02-24T02:07:32.940Z,97034.09
2023-02-24T02:08:36.904Z,97039.22
2023-02-24T02:09:38.592Z,97038.41
2023-02-24T02:10:44.120Z,97037.97
2023-02-24T02:11:49.027Z,97036.84
2023-02-24T02:12:51.680Z,97035.56
2023-02-24T02:13:55.119Z,97029.06
2023-02-24T02:14:56.808Z,97030.63
2023-02-24T02:16:16.823Z,97035.53
2023-02-24T02:17:21.123Z,97028.09
2023-02-24T02:18:29.743Z,97029.34
2023-02-24T02:19:50.371Z,97025.72
2023-02-24T02:21:01.583Z,97029.50
2023-02-24T02:22:07.910Z,97021.72
2023-02-24T02:23:20.217Z,97016.31
2023-02-24T02:24:29.576Z,97024.13
2023-02-24T02:25:37.534Z,97017.28
2023-02-24T02:27:20.872Z,97018.88
2023-02-24T02:28:36.827Z,97020.75
2023-02-24T02:29:51.964Z,97018.56
2023-02-24T02:31:16.891Z,97012.38
2023-02-24T02:33:01.920Z,97007.13
2023-02-24T02:34:20.824Z,97006.97
2023-02-24T02:35:24.786Z,97015.09
2023-02-24T02:36:29.310Z,97003.19
2023-02-24T02:37:32.992Z,97013.16
2023-02-24T02:38:37.077Z,97006.00
2023-02-24T02:39:48.964Z,97001.41
2023-02-24T02:40:59.188Z,96995.56
2023-02-24T02:42:06.912Z,96993.19
2023-02-24T02:43:14.409Z,96996.53
2023-02-24T02:44:20.368Z,96999.50
2023-02-24T02:45:23.159Z,96997.28
2023-02-24T02:46:34.725Z,96992.38
2023-02-24T02:47:41.176Z,96996.19
2023-02-24T02:48:48.346Z,96986.16
2023-02-24T02:49:52.150Z,96993.81
2023-02-24T02:50:55.872Z,96992.06
2023-02-24T02:52:00.978Z,96980.50
2023-02-24T02:53:04.964Z,96988.44
2023-02-24T02:54:10.167Z,96975.69
2023-02-24T02:55:14.030Z,96983.78
2023-02-24T02:56:16.796Z,96973.94
2023-02-24T02:57:21.579Z,96971.25
2023-02-24T02:58:26.149Z,96976.63
2023-02-24T02:59:29.494Z,96974.25
2023-02-24T03:00:35.112Z,96977.75
2023-02-24T03:01:38.928Z,96969.00
2023-02-24T03:02:43.107Z,96975.84
2023-02-24T03:03:46.627Z,96966.66
2023-02-24T03:04:52.824Z,96960.28
2023-02-24T03:05:56.318Z,96960.94
2023-02-24T03:07:00.718Z,96962.69
2023-02-24T03:08:04.741Z,96960.59
2023-02-24T03:09:12.224Z,96964.56
2023-02-24T03:10:20.841Z,96962.69
2023-02-24T03:11:23.486Z,96962.88
2023-02-24T03:12:25.140Z,96963.16
2023-02-24T03:13:30.174Z,96964.13
2023-02-24T03:14:33.288Z,96958.75
2023-02-24T03:15:35.906Z,96954.13
2023-02-24T03:16:37.649Z,96958.75
2023-02-24T03:17:41.761Z,96954.88
2023-02-24T03:18:44.799Z,96951.53
2023-02-24T03:19:49.836Z,96944.03
2023-02-24T03:20:57.277Z,96944.69
2023-02-24T03:22:01.799Z,96940.53
2023-02-24T03:23:04.736Z,96937.19
2023-02-24T03:24:07.973Z,96935.91
2023-02-24T03:25:10.616Z,96931.94
2023-02-24T03:26:17.540Z,96939.28
2023-02-24T03:27:23.044Z,96930.50
2023-02-24T03:28:30.062Z,96935.75
2023-02-24T03:29:34.680Z,96938.94
2023-02-24T03:30:41.058Z,96928.91
2023-02-24T03:31:44.021Z,96927.66
2023-02-24T03:32:51.393Z,96934.31
2023-02-24T03:34:00.533Z,96924.50
2023-02-24T03:35:05.216Z,96939.72
2023-02-24T03:36:08.254Z,96936.25
2023-02-24T03:37:10.860Z,96936.91
2023-02-24T03:38:14.074Z,96932.63
2023-02-24T03:39:16.754Z,96928.63
2023-02-24T03:40:18.595Z,96932.28
2023-02-24T03:41:21.582Z,96933.19
2023-02-24T03:42:23.539Z,96926.34
2023-02-24T03:43:28.605Z,96929.84
2023-02-24T03:44:30.237Z,96925.88
2023-02-24T03:45:35.332Z,96927.47
2023-02-24T03:46:37.361Z,96927.66
2023-02-24T03:47:40.759Z,96938.28
2023-02-24T03:48:44.765Z,96939.59
2023-02-24T03:49:47.615Z,96945.00
2023-02-24T03:50:49.615Z,96936.09
2023-02-24T03:51:59.980Z,96942.59
2023-02-24T03:53:06.979Z,96934.97
2023-02-24T03:54:16.107Z,96933.22
2023-02-24T03:55:21.617Z,96940.81
2023-02-24T03:56:29.652Z,96942.75
2023-02-24T03:57:36.446Z,96941.97
2023-02-24T03:58:46.151Z,96945.59
2023-02-24T03:59:52.886Z,96948.16
2023-02-24T04:00:59.243Z,96946.28
2023-02-24T04:02:03.582Z,96937.69
2023-02-24T04:03:13.774Z,96947.88
2023-02-24T04:04:18.641Z,96950.25
2023-02-24T04:05:22.364Z,96952.97
2023-02-24T04:06:28.683Z,96951.91
2023-02-24T04:07:38.843Z,96952.50
2023-02-24T04:08:42.404Z,96958.06
2023-02-24T04:09:48.278Z,96960.44
2023-02-24T04:10:52.700Z,96959.66
2023-02-24T04:11:57.583Z,96957.56
2023-02-24T04:13:02.068Z,96950.59
2023-02-24T04:14:07.338Z,96956.19
2023-02-24T04:15:11.390Z,96952.84
2023-02-24T04:16:29.800Z,96958.56
2023-02-24T04:17:33.487Z,96963.97
2023-02-24T04:18:36.095Z,96957.16
2023-02-24T04:19:40.496Z,96963.47
2023-02-24T04:20:43.762Z,96954.13
2023-02-24T04:21:45.572Z,96960.78
2023-02-24T04:22:51.537Z,96958.75
2023-02-24T04:23:53.197Z,96960.94
2023-02-24T04:24:58.227Z,96955.56
2023-02-24T04:25:59.878Z,96959.69
2023-02-24T04:27:03.170Z,96964.47
2023-02-24T04:28:04.832Z,96963.84
2023-02-24T04:29:07.935Z,96955.75
2023-02-24T04:30:11.297Z,96957.34
2023-02-24T04:31:17.406Z,96960.03
2023-02-24T04:32:21.726Z,96961.31
2023-02-24T04:33:24.425Z,96954.00
2023-02-24T04:34:26.391Z,96946.22
2023-02-24T04:35:29.035Z,96950.19
2023-02-24T04:36:34.064Z,96950.69
2023-02-24T04:37:37.219Z,96941.81
2023-02-24T04:38:40.206Z,96947.50
2023-02-24T04:39:42.790Z,96947.19
2023-02-24T04:40:44.688Z,96944.81
2023-02-24T04:41:49.282Z,96939.72
2023-02-24T04:42:51.933Z,96933.22
2023-02-24T04:43:54.676Z,96940.97
2023-02-24T04:44:58.535Z,96936.53
2023-02-24T04:46:01.276Z,96937.78
2023-02-24T04:47:03.845Z,96939.72
2023-02-24T04:48:12.484Z,96936.69
2023-02-24T04:49:14.115Z,96936.19
2023-02-24T04:50:22.872Z,96928.25
2023-02-24T04:51:24.615Z,96927.47
2023-02-24T04:52:27.777Z,96926.53
2023-02-24T04:53:29.421Z,96924.63
2023-02-24T04:54:34.802Z,96928.56
2023-02-24T04:55:40.039Z,96930.78
2023-02-24T04:56:42.706Z,96926.88
2023-02-24T04:57:45.989Z,96927.19
2023-02-24T04:58:48.614Z,96923.88
2023-02-24T04:59:53.841Z,96926.25
2023-02-24T05:00:56.648Z,96931.31
2023-02-24T05:02:01.672Z,96924.50
2023-02-24T05:03:05.299Z,96924.22
2023-02-24T05:04:07.120Z,96927.50
2023-02-24T05:05:10.142Z,96923.72
2023-02-24T05:06:14.055Z,96926.91
2023-02-24T05:07:17.326Z,96923.72
2023-02-24T05:08:19.073Z,96921.97
2023-02-24T05:09:22.227Z,96922.13
2023-02-24T05:10:27.896Z,96921.03
2023-02-24T05:11:34.814Z,96925.94
2023-02-24T05:12:39.896Z,96922.28
2023-02-24T05:13:45.630Z,96928.63
2023-02-24T05:14:49.337Z,96925.31
2023-02-24T05:15:52.100Z,96917.06
2023-02-24T05:16:59.997Z,96928.19
2023-02-24T05:18:07.436Z,96921.81
2023-02-24T05:19:27.893Z,96921.97
2023-02-24T05:20:48.236Z,96926.59
2023-02-24T05:21:49.975Z,96921.84
2023-02-24T05:22:52.710Z,96920.09
2023-02-24T05:23:54.669Z,96916.91
2023-02-24T05:24:58.252Z,96922.28
2023-02-24T05:26:01.709Z,96921.81
2023-02-24T05:27:04.412Z,96920.69
2023-02-24T05:28:06.542Z,96915.94
2023-02-24T05:29:09.353Z,96912.78
2023-02-24T05:30:12.155Z,96919.91
2023-02-24T05:31:17.465Z,96918.50
2023-02-24T05:32:20.326Z,96918.66
2023-02-24T05:33:22.671Z,96908.53
2023-02-24T05:34:25.291Z,96902.16
2023-02-24T05:35:26.960Z,96916.91
2023-02-24T05:36:30.901Z,96917.38
2023-02-24T05:37:34.064Z,96914.22
2023-02-24T05:38:38.078Z,96922.47
2023-02-24T05:39:40.955Z,96915.19
2023-02-24T05:40:46.719Z,96913.09
2023-02-24T05:41:49.768Z,96915.97
2023-02-24T05:42:53.551Z,96921.53
2023-02-24T05:43:55.491Z,96916.28
2023-02-24T05:44:58.118Z,96917.41
2023-02-24T05:46:00.150Z,96912.94
2023-02-24T05:47:05.091Z,96919.00
2023-02-24T05:48:06.810Z,96912.78
2023-02-24T05:49:14.190Z,96922.00
2023-02-24T05:50:17.043Z,96918.34
2023-02-24T05:51:19.897Z,96916.28
2023-02-24T05:52:22.944Z,96918.34
2023-02-24T05:53:25.404Z,96917.22
2023-02-24T05:54:29.982Z,96917.56
2023-02-24T05:55:31.880Z,96915.00
2023-02-24T05:56:34.864Z,96923.91
2023-02-24T05:57:38.840Z,96916.47
2023-02-24T05:58:40.482Z,96918.06
2023-02-24T05:59:44.679Z,96920.59
2023-02-24T06:00:46.492Z,96908.03
2023-02-24T06:01:49.613Z,96917.88
2023-02-24T06:02:52.190Z,96920.41
2023-02-24T06:03:54.791Z,96916.47
2023-02-24T06:04:58.845Z,96922.16
2023-02-24T06:06:05.573Z,96915.03
2023-02-24T06:07:13.495Z,96913.44
2023-02-24T06:08:16.130Z,96915.97
2023-02-24T06:09:18.289Z,96922.16
2023-02-24T06:10:22.433Z,96925.97
2023-02-24T06:11:24.478Z,96927.72
2023-02-24T06:12:28.292Z,96926.91
2023-02-24T06:13:31.280Z,96924.38
2023-02-24T06:14:34.110Z,96927.56
2023-02-24T06:15:37.414Z,96923.13
2023-02-24T06:16:41.016Z,96927.25
2023-02-24T06:17:45.016Z,96926.59
2023-02-24T06:18:47.994Z,96931.81
2023-02-24T06:19:51.390Z,96929.28
2023-02-24T06:20:53.812Z,96925.97
2023-02-24T06:21:56.602Z,96933.75
2023-02-24T06:22:58.339Z,96930.09
2023-02-24T06:24:01.570Z,96925.66
2023-02-24T06:25:05.278Z,96928.19
2023-02-24T06:26:12.843Z,96927.25
2023-02-24T06:27:17.685Z,96929.13
2023-02-24T06:28:20.673Z,96925.78
2023-02-24T06:29:29.616Z,96916.28
2023-02-24T06:30:32.764Z,96926.88
2023-02-24T06:31:34.473Z,96920.56
2023-02-24T06:32:37.355Z,96927.69
2023-02-24T06:33:39.084Z,96923.72
2023-02-24T06:34:41.792Z,96921.47
2023-02-24T06:35:43.442Z,96925.94
2023-02-24T06:36:46.959Z,96923.22
2023-02-24T06:37:48.689Z,96921.50
2023-02-24T06:38:52.553Z,96926.44
2023-02-24T06:39:54.233Z,96925.00
2023-02-24T06:40:58.460Z,96927.53
2023-02-24T06:42:03.864Z,96920.22
2023-02-24T06:43:06.496Z,96921.50
2023-02-24T06:44:09.423Z,96930.81
2023-02-24T06:45:13.781Z,96921.91
2023-02-24T06:46:16.102Z,96922.75
2023-02-24T06:47:18.860Z,96923.38
2023-02-24T06:48:22.914Z,96924.19
2023-02-24T06:49:24.613Z,96923.34
2023-02-24T06:50:28.739Z,96925.25
2023-02-24T06:51:30.432Z,96920.31
2023-02-24T06:52:34.044Z,96919.19
2023-02-24T06:53:35.947Z,96918.56
2023-02-24T06:54:38.821Z,96919.03
2023-02-24T06:55:40.461Z,96926.81
2023-02-24T06:56:43.079Z,96928.69
2023-02-24T06:57:44.748Z,96934.84
2023-02-24T06:58:48.164Z,96936.72
2023-02-24T06:59:50.827Z,96935.19
2023-02-24T07:00:57.673Z,96935.19
2023-02-24T07:02:01.758Z,96940.28
2023-02-24T07:03:14.741Z,96940.72
2023-02-24T07:04:21.080Z,96939.34
2023-02-24T07:05:24.139Z,96940.34
2023-02-24T07:06:28.531Z,96939.38
2023-02-24T07:07:31.164Z,96949.81
2023-02-24T07:08:32.788Z,96944.16
2023-02-24T07:09:35.476Z,96947.59
2023-02-24T07:10:37.127Z,96941.88
2023-02-24T07:11:42.228Z,96949.00
2023-02-24T07:12:43.848Z,96939.53
2023-02-24T07:13:47.198Z,96947.59
2023-02-24T07:14:50.784Z,96950.13
2023-02-24T07:15:54.856Z,96933.81
2023-02-24T07:16:58.204Z,96956.13
2023-02-24T07:17:59.928Z,96951.38
2023-02-24T07:19:03.804Z,96956.47
2023-02-24T07:20:11.664Z,96948.81
2023-02-24T07:21:16.260Z,96947.97
2023-02-24T07:22:24.976Z,96946.72
2023-02-24T07:23:29.315Z,96945.06
2023-02-24T07:24:36.476Z,96945.19
2023-02-24T07:25:40.778Z,96945.34
2023-02-24T07:26:43.782Z,96933.75
2023-02-24T07:27:45.464Z,96938.47
2023-02-24T07:28:48.123Z,96939.16
2023-02-24T07:29:51.830Z,96935.38
2023-02-24T07:30:57.197Z,96933.34
2023-02-24T07:32:01.354Z,96938.72
2023-02-24T07:33:04.774Z,96936.31
2023-02-24T07:34:07.390Z,96930.28
2023-02-24T07:35:10.209Z,96929.66
2023-02-24T07:36:14.876Z,96926.34
2023-02-24T07:37:19.611Z,96925.72
2023-02-24T07:38:22.890Z,96923.34
2023-02-24T07:39:25.668Z,96923.66
2023-02-24T07:40:27.484Z,96937.28
2023-02-24T07:41:31.471Z,96927.13
2023-02-24T07:42:35.355Z,96925.34
2023-02-24T07:43:37.343Z,96930.41
2023-02-24T07:44:39.972Z,96928.84
2023-02-24T07:45:42.631Z,96940.81
2023-02-24T07:46:48.118Z,96938.78
2023-02-24T07:47:49.777Z,96939.88
2023-02-24T07:48:52.546Z,96935.34
2023-02-24T07:49:55.345Z,96938.28
2023-02-24T07:50:59.388Z,96933.53
2023-02-24T07:52:02.082Z,96928.63
2023-02-24T07:53:05.639Z,96941.22
2023-02-24T07:54:08.772Z,96937.06
2023-02-24T07:55:12.126Z,96939.00
2023-02-24T07:56:14.493Z,96931.25
2023-02-24T07:57:18.849Z,96938.47
2023-02-24T07:58:21.123Z,96941.59
2023-02-24T07:59:23.881Z,96944.41
2023-02-24T08:00:28.203Z,96939.16
2023-02-24T08:01:38.832Z,96938.53
2023-02-24T08:02:41.976Z,96930.84
2023-02-24T08:03:44.834Z,96942.84
2023-02-24T08:04:51.363Z,96942.78
2023-02-24T08:05:58.938Z,96947.19
2023-02-24T08:07:03.253Z,96942.53
2023-02-24T08:08:05.166Z,96950.94
2023-02-24T08:09:16.769Z,96942.31
2023-02-24T08:10:24.349Z,96940.63
2023-02-24T08:11:28.025Z,96945.09
2023-02-24T08:12:30.614Z,96955.25
2023-02-24T08:13:37.411Z,96956.50
2023-02-24T08:14:44.496Z,96940.69
2023-02-24T08:15:56.145Z,96943.03
2023-02-24T08:16:59.639Z,96940.56
2023-02-24T08:18:03.691Z,96940.72
2023-02-24T08:19:05.711Z,96937.47
2023-02-24T08:20:25.100Z,96933.00
2023-02-24T08:21:27.799Z,96936.13
2023-02-24T08:22:37.150Z,96935.59
2023-02-24T08:23:44.570Z,96930.84
2023-02-24T08:24:50.142Z,96932.31
2023-02-24T08:25:53.791Z,96929.81
2023-02-24T08:27:05.194Z,96917.66
2023-02-24T08:28:11.250Z,96920.31
2023-02-24T08:29:13.190Z,96916.81
2023-02-24T08:30:23.389Z,96915.50
2023-02-24T08:31:26.691Z,96923.19
2023-02-24T08:32:34.001Z,96918.59
2023-02-24T08:33:38.095Z,96916.94
2023-02-24T08:34:39.738Z,96910.09
2023-02-24T08:35:44.729Z,96909.84
2023-02-24T08:36:55.710Z,96909.22
2023-02-24T08:38:00.565Z,96899.47
2023-02-24T08:39:03.993Z,96912.63
2023-02-24T08:40:09.073Z,96907.22
2023-02-24T08:41:17.827Z,96894.00
2023-02-24T08:42:20.244Z,96898.69
2023-02-24T08:43:32.911Z,96900.47
2023-02-24T08:44:37.194Z,96895.06
2023-02-24T08:45:38.866Z,96900.34
2023-02-24T08:46:41.518Z,96893.78
2023-02-24T08:47:45.203Z,96901.31
2023-02-24T08:48:50.271Z,96898.34
2023-02-24T08:49:53.721Z,96890.78
2023-02-24T08:50:56.488Z,96876.19
2023-02-24T08:52:02.196Z,96889.81
2023-02-24T08:53:04.482Z,96890.31
2023-02-24T08:54:10.899Z,96887.44
2023-02-24T08:55:12.748Z,96888.09
2023-02-24T08:56:23.985Z,96879.88
2023-02-24T08:57:27.173Z,96882.91
2023-02-24T08:58:28.816Z,96883.34
2023-02-24T08:59:38.774Z,96881.88
2023-02-24T09:00:49.158Z,96874.81
2023-02-24T09:02:13.175Z,96874.00
2023-02-24T09:03:27.810Z,96870.03
2023-02-24T09:04:34.220Z,96869.22
2023-02-24T09:05:38.933Z,96857.34
2023-02-24T09:06:44.873Z,96862.56
2023-02-24T09:07:54.528Z,96858.91
2023-02-24T09:09:11.683Z,96860.16
2023-02-24T09:10:17.772Z,96852.59
2023-02-24T09:11:22.813Z,96863.81
2023-02-24T09:12:26.175Z,96867.34
2023-02-24T09:13:33.098Z,96851.50
2023-02-24T09:14:37.521Z,96858.66
2023-02-24T09:15:44.139Z,96855.19
2023-02-24T09:17:02.048Z,96852.50
2023-02-24T09:18:08.200Z,96859.13
2023-02-24T09:19:40.307Z,96846.94
2023-02-24T09:21:16.130Z,96849.50
2023-02-24T09:22:31.323Z,96853.44
2023-02-24T09:23:45.847Z,96850.88
2023-02-24T09:24:50.922Z,96853.28
2023-02-24T09:25:54.290Z,96843.63
2023-02-24T09:26:58.576Z,96850.13
2023-02-24T09:28:08.121Z,96846.16
2023-02-24T09:29:32.989Z,96840.75
2023-02-24T09:30:35.823Z,96836.47
2023-02-24T09:31:48.165Z,96842.47
2023-02-24T09:32:50.114Z,96833.91
2023-02-24T09:33:52.819Z,96831.59
2023-02-24T09:34:54.458Z,96834.88
2023-02-24T09:36:09.654Z,96835.22
2023-02-24T09:37:24.825Z,96830.00
2023-02-24T09:38:57.793Z,96832.38
2023-02-24T09:40:33.428Z,96826.81
2023-02-24T09:41:53.488Z,96825.56
2023-02-24T09:42:58.282Z,96827.16
2023-02-24T09:44:03.740Z,96820.94
2023-02-24T09:45:11.408Z,96820.81
2023-02-24T09:46:14.574Z,96816.69
2023-02-24T09:47:31.112Z,96819.84
2023-02-24T09:48:43.637Z,96818.75
2023-02-24T09:49:48.775Z,96827.75
2023-02-24T09:51:05.217Z,96820.94
2023-02-24T09:52:17.374Z,96823.66
2023-02-24T09:53:19.455Z,96819.66
2023-02-24T09:54:24.413Z,96808.09
2023-02-24T09:55:35.655Z,96808.88
2023-02-24T09:56:42.537Z,96812.69
2023-02-24T09:58:06.518Z,96811.75
2023-02-24T09:59:13.590Z,96811.47
2023-02-24T10:00:25.738Z,96814.16
2023-02-24T10:01:35.835Z,96812.25
2023-02-24T10:02:44.194Z,96804.50
2023-02-24T10:03:48.313Z,96811.31
2023-02-24T10:05:07.360Z,96806.53
2023-02-24T10:06:14.188Z,96799.13
2023-02-24T10:07:18.965Z,96808.13
2023-02-24T10:08:25.366Z,96804.16
2023-02-24T10:09:34.343Z,96797.34
2023-02-24T10:10:36.141Z,96804.31
2023-02-24T10:11:40.065Z,96789.72
2023-02-24T10:12:42.672Z,96781.31
2023-02-24T10:13:47.584Z,96795.41
2023-02-24T10:14:52.938Z,96795.41
2023-02-24T10:16:08.260Z,96797.47
2023-02-24T10:17:24.176Z,96788.13
2023-02-24T10:18:28.762Z,96793.97
2023-02-24T10:19:33.072Z,96782.72
2023-02-24T10:20:39.465Z,96792.88
2023-02-24T10:22:01.498Z,96791.31
2023-02-24T10:23:09.703Z,96786.25
2023-02-24T10:24:14.430Z,96778.78
2023-02-24T10:25:23.354Z,96783.41
2023-02-24T10:26:31.667Z,96781.63
2023-02-24T10:27:36.189Z,96779.44
2023-02-24T10:28:43.809Z,96772.28
2023-02-24T10:29:55.597Z,96767.84
2023-02-24T10:31:10.147Z,96759.78
2023-02-24T10:32:23.522Z,96761.22
2023-02-24T10:33:29.191Z,96760.25
2023-02-24T10:34:31.847Z,96767.84
2023-02-24T10:35:36.699Z,96767.25
2023-02-24T10:36:39.173Z,96759.94
2023-02-24T10:37:42.574Z,96763.41
2023-02-24T10:38:45.784Z,96761.06
2023-02-24T10:39:51.922Z,96759.31
2023-02-24T10:40:57.568Z,96753.47
2023-02-24T10:42:15.436Z,96746.50
2023-02-24T10:43:19.538Z,96752.84
2023-02-24T10:44:24.068Z,96752.38
2023-02-24T10:45:27.497Z,96750.47
2023-02-24T10:46:40.882Z,96752.53
2023-02-24T10:47:45.803Z,96750.97
2023-02-24T10:48:52.196Z,96756.03
2023-02-24T10:50:00.457Z,96752.84
2023-02-24T10:51:09.929Z,96750.31
2023-02-24T10:52:29.272Z,96747.16
2023-02-24T10:53:34.910Z,96743.34
2023-02-24T10:55:05.074Z,96750.97
2023-02-24T10:56:26.760Z,96748.72
2023-02-24T10:57:42.610Z,96744.00
2023-02-24T10:59:19.914Z,96742.41
2023-02-24T11:00:32.751Z,96746.22
2023-02-24T11:01:54.840Z,96750.34
2023-02-24T11:03:06.785Z,96745.41
2023-02-24T11:04:22.794Z,96743.03
2023-02-24T11:05:38.497Z,96743.53
2023-02-24T11:06:52.672Z,96744.16
2023-02-24T11:08:15.665Z,96736.03
2023-02-24T11:09:32.144Z,96735.28
2023-02-24T11:10:52.821Z,96744.47
2023-02-24T11:12:12.864Z,96734.97
2023-02-24T11:13:33.119Z,96729.75
2023-02-24T11:14:54.138Z,96740.81
2023-02-24T11:16:14.313Z,96734.50
2023-02-24T11:17:20.916Z,96731.50
2023-02-24T11:18:23.379Z,96715.00
2023-02-24T11:19:29.281Z,96704.41
2023-02-24T11:20:48.547Z,96709.16
2023-02-24T11:21:52.313Z,96712.16
2023-02-24T11:22:55.870Z,96731.97
2023-02-24T11:23:59.908Z,96712.00
2023-02-24T11:25:04.808Z,96711.22
2023-02-24T11:26:25.748Z,96702.34
2023-02-24T11:27:28.420Z,96698.69
2023-02-24T11:28:38.842Z,96709.94
2023-02-24T11:29:50.181Z,96714.84
2023-02-24T11:30:54.450Z,96709.47
2023-02-24T11:32:16.942Z,96709.78
2023-02-24T11:33:27.179Z,96707.25
2023-02-24T11:34:33.155Z,96701.88
2023-02-24T11:35:41.832Z,96704.72
2023-02-24T11:36:46.453Z,96707.41
2023-02-24T11:37:54.005Z,96696.16
2023-02-24T11:39:15.290Z,96696.00
2023-02-24T11:40:23.720Z,96691.09
2023-02-24T11:41:27.861Z,96692.84
2023-02-24T11:42:32.787Z,96680.81
2023-02-24T11:43:36.430Z,96688.09
2023-02-24T11:44:43.548Z,96690.31
2023-02-24T11:45:47.476Z,96690.63
2023-02-24T11:46:50.269Z,96682.88
2023-02-24T11:47:55.368Z,96678.25
2023-02-24T11:48:58.502Z,96673.03
2023-02-24T11:50:06.059Z,96673.84
2023-02-24T11:51:11.556Z,96669.56
2023-02-24T11:52:15.351Z,96674.94
2023-02-24T11:53:26.402Z,96665.44
2023-02-24T11:54:38.316Z,96670.66
2023-02-24T11:55:42.485Z,96663.84
2023-02-24T11:56:48.172Z,96652.31
2023-02-24T11:57:51.261Z,96666.72
2023-02-24T11:58:55.939Z,96660.06
2023-02-24T12:00:04.354Z,96664.81
2023-02-24T12:01:09.310Z,96648.81
2023-02-24T12:02:15.463Z,96654.84
2023-02-24T12:03:22.755Z,96650.72
2023-02-24T12:04:27.360Z,96651.81
2023-02-24T12:05:34.983Z,96650.25
2023-02-24T12:06:40.321Z,96632.69
2023-02-24T12:07:42.747Z,96637.91
2023-02-24T12:08:46.458Z,96633.00
2023-02-24T12:09:51.259Z,96635.22
2023-02-24T12:10:56.468Z,96641.53
2023-02-24T12:12:03.156Z,96625.53
2023-02-24T12:13:09.602Z,96629.03
2023-02-24T12:14:19.254Z,96612.75
2023-02-24T12:15:24.927Z,96622.84
2023-02-24T12:16:29.121Z,96622.69
2023-02-24T12:17:34.160Z,96615.28
2023-02-24T12:18:37.147Z,96614.94
2023-02-24T12:19:44.394Z,96613.19
2023-02-24T12:20:48.119Z,96608.63
2023-02-24T12:21:52.608Z,96602.75
2023-02-24T12:22:56.162Z,96601.31
2023-02-24T12:23:59.220Z,96602.28
2023-02-24T12:25:02.009Z,96596.44
2023-02-24T12:26:13.366Z,96590.53
2023-02-24T12:27:20.803Z,96587.72
2023-02-24T12:28:29.884Z,96580.91
2023-02-24T12:29:48.667Z,96579.13
2023-02-24T12:30:57.491Z,96581.34
2023-02-24T12:32:05.642Z,96577.03
2023-02-24T12:33:16.092Z,96577.03
2023-02-24T12:34:21.296Z,96576.34
2023-02-24T12:35:27.266Z,96567.00
2023-02-24T12:36:37.420Z,96565.28
2023-02-24T12:37:48.307Z,96559.78
2023-02-24T12:38:55.633Z,96566.88
2023-02-24T12:40:05.685Z,96550.88
2023-02-24T12:41:16.582Z,96553.44
2023-02-24T12:42:23.576Z,96548.19
2023-02-24T12:43:28.644Z,96546.09
2023-02-24T12:44:34.496Z,96536.47
2023-02-24T12:45:42.815Z,96536.84
2023-02-24T12:46:44.500Z,96535.91
2023-02-24T12:47:56.463Z,96528.78
2023-02-24T12:49:17.775Z,96531.13
2023-02-24T12:50:27.559Z,96525.13
2023-02-24T12:51:33.464Z,96531.28
2023-02-24T12:52:40.035Z,96529.72
2023-02-24T12:53:45.255Z,96533.97
2023-02-24T12:54:48.644Z,96522.50
2023-02-24T12:55:56.481Z,96518.22